Time;durP1;ratioP1;P1;durP2;ratioP2;P2;SDS_P1;SDS_P2;PMS_P1;PMS_P2;Temp;Humidity;BMP_temperature;BMP_pressure;BME280_temperature;BME280_humidity;BME280_pressure;Samples;Min_cycle;Max_cycle;Signal;HPM_P1;HPM_P2
2022/10/13 00:00:39;;;;;;;;;;;21.80;99.90;;;;;;5039265;28;20008;-73
2022/10/13 00:03:06;;;;;;;;;;;21.80;99.90;;;;;;5036410;28;20374;-74
2022/10/13 00:05:33;;;;;;;;;;;21.70;99.60;;;;;;5038950;28;19967;-74
2022/10/13 00:08:00;;;;;;;;;;;21.60;99.90;;;;;;5036966;28;20579;-77
2022/10/13 00:10:27;;;;;;;;;;;21.50;99.90;;;;;;5033203;28;19917;-75
2022/10/13 00:12:53;;;;;;;;;;;21.40;99.90;;;;;;5039023;28;20377;-76
2022/10/13 00:15:20;;;;;;;;;;;21.30;99.90;;;;;;5041283;28;19920;-77
2022/10/13 00:17:47;;;;;;;;;;;21.20;99.90;;;;;;5036347;28;19924;-76
2022/10/13 00:20:14;;;;;;;;;;;21.20;99.90;;;;;;5044775;28;19913;-75
2022/10/13 00:22:40;;;;;;;;;;;21.30;99.90;;;;;;5045953;28;19925;-74
2022/10/13 00:25:07;;;;;;;;;;;21.30;99.90;;;;;;5053257;28;19920;-74
2022/10/13 00:27:34;;;;;;;;;;;21.50;99.90;;;;;;5047730;28;19917;-74
2022/10/13 00:30:00;;;;;;;;;;;21.70;99.90;;;;;;5049178;28;19920;-74
2022/10/13 00:32:28;;;;;;;;;;;21.70;99.90;;;;;;5040078;28;20732;-75
2022/10/13 00:34:56;;;;;;;;;;;21.80;99.90;;;;;;5050837;28;19916;-74
2022/10/13 00:37:23;;;;;;;;;;;21.80;99.90;;;;;;5047833;28;19932;-74
2022/10/13 00:39:50;;;;;;;;;;;21.70;99.80;;;;;;5049936;28;19912;-74
2022/10/13 00:42:17;;;;;;;;;;;21.60;99.70;;;;;;5036955;28;20380;-73
2022/10/13 00:45:04;;;;;;;;;;;21.50;99.20;;;;;;5040671;28;19948;-74
2022/10/13 00:47:35;;;;;;;;;;;21.40;99.60;;;;;;5046612;28;21986;-74
2022/10/13 00:50:03;;;;;;;;;;;21.50;99.90;;;;;;5041039;28;19928;-73
2022/10/13 00:52:31;;;;;;;;;;;21.40;98.70;;;;;;5044496;28;19959;-75
2022/10/13 00:54:58;;;;;;;;;;;21.50;99.80;;;;;;5049677;28;20049;-74
2022/10/13 00:57:25;;;;;;;;;;;21.40;99.70;;;;;;5050416;28;19999;-75
2022/10/13 00:59:52;;;;;;;;;;;21.40;99.40;;;;;;5045648;28;19913;-74
2022/10/13 01:02:18;;;;;;;;;;;21.40;99.30;;;;;;5042907;28;19925;-76
2022/10/13 01:04:46;;;;;;;;;;;21.50;99.70;;;;;;5043732;28;19932;-76
2022/10/13 01:07:16;;;;;;;;;;;21.50;99.40;;;;;;5041458;28;19925;-75
2022/10/13 01:09:43;;;;;;;;;;;21.40;99.30;;;;;;5057944;28;19916;-76
2022/10/13 01:12:17;;;;;;;;;;;21.30;99.60;;;;;;5043489;28;19994;-74
2022/10/13 01:14:43;;;;;;;;;;;21.10;99.80;;;;;;5042717;28;19982;-75
2022/10/13 01:17:46;;;;;;;;;;;21.00;99.30;;;;;;5041770;28;19994;-75
2022/10/13 01:20:15;;;;;;;;;;;20.80;99.50;;;;;;4997997;28;19951;-75
2022/10/13 01:23:02;;;;;;;;;;;20.70;99.80;;;;;;5033816;28;20825;-75
2022/10/13 01:25:47;;;;;;;;;;;20.70;99.90;;;;;;5013519;28;19929;-74
2022/10/13 01:28:23;;;;;;;;;;;20.70;99.90;;;;;;5045492;28;19956;-75
2022/10/13 01:30:54;;;;;;;;;;;20.80;99.80;;;;;;5049299;28;19917;-77
2022/10/13 01:33:21;;;;;;;;;;;20.90;99.60;;;;;;5051730;28;19996;-76
2022/10/13 01:36:06;;;;;;;;;;;21.00;99.60;;;;;;5044054;28;19921;-75
2022/10/13 01:38:32;;;;;;;;;;;21.10;99.50;;;;;;5041187;28;20308;-74
2022/10/13 01:41:03;;;;;;;;;;;21.20;99.20;;;;;;5049155;28;20401;-74
2022/10/13 01:43:37;;;;;;;;;;;21.30;99.20;;;;;;5045541;28;19917;-74
2022/10/13 01:46:24;;;;;;;;;;;21.60;99.20;;;;;;5046146;28;19921;-74
2022/10/13 01:48:52;;;;;;;;;;;21.80;98.80;;;;;;5048520;28;20310;-74
2022/10/13 01:51:21;;;;;;;;;;;22.00;98.20;;;;;;5040413;28;19974;-74
2022/10/13 01:53:48;;;;;;;;;;;22.00;98.40;;;;;;5036506;28;19920;-72
2022/10/13 01:56:15;;;;;;;;;;;22.10;98.50;;;;;;5036214;28;19955;-73
2022/10/13 01:58:41;;;;;;;;;;;22.20;98.60;;;;;;5040392;28;19924;-73
2022/10/13 02:01:25;;;;;;;;;;;22.40;98.40;;;;;;5047167;28;20398;-73
2022/10/13 02:04:08;;;;;;;;;;;22.40;98.10;;;;;;5045211;28;20286;-75
2022/10/13 02:06:46;;;;;;;;;;;22.20;98.20;;;;;;5046575;28;20290;-74
2022/10/13 02:09:22;;;;;;;;;;;22.30;98.10;;;;;;5043060;28;20386;-74
2022/10/13 02:11:51;;;;;;;;;;;22.30;98.00;;;;;;5036821;28;20345;-75
2022/10/13 02:14:21;;;;;;;;;;;22.20;98.40;;;;;;5041313;28;19920;-76
2022/10/13 02:16:48;;;;;;;;;;;22.10;97.70;;;;;;5047546;28;19925;-78
2022/10/13 02:19:16;;;;;;;;;;;22.00;98.10;;;;;;5045936;28;19913;-78
2022/10/13 02:21:44;;;;;;;;;;;21.70;98.40;;;;;;5048323;28;19913;-76
2022/10/13 02:24:10;;;;;;;;;;;21.50;98.10;;;;;;5037003;28;19929;-76
2022/10/13 02:26:37;;;;;;;;;;;21.40;98.70;;;;;;4999858;28;20029;-76
2022/10/13 02:29:22;;;;;;;;;;;21.30;98.90;;;;;;5007367;28;19983;-75
2022/10/13 02:31:48;;;;;;;;;;;21.30;99.10;;;;;;5001346;28;19967;-74
2022/10/13 02:34:15;;;;;;;;;;;21.30;99.00;;;;;;5003037;28;19983;-75
2022/10/13 02:36:42;;;;;;;;;;;21.20;99.00;;;;;;5004282;28;19929;-77
2022/10/13 02:39:09;;;;;;;;;;;21.10;99.30;;;;;;5007625;28;20281;-76
2022/10/13 02:41:36;;;;;;;;;;;21.10;99.30;;;;;;5005254;28;19921;-76
2022/10/13 02:44:03;;;;;;;;;;;21.20;99.10;;;;;;5004796;28;21738;-74
2022/10/13 02:46:29;;;;;;;;;;;21.20;99.10;;;;;;5003935;28;19917;-75
2022/10/13 02:48:56;;;;;;;;;;;21.30;99.20;;;;;;5017416;28;19913;-76
2022/10/13 02:51:23;;;;;;;;;;;21.20;99.00;;;;;;5009540;28;20422;-77
2022/10/13 02:53:50;;;;;;;;;;;21.20;99.00;;;;;;5000493;28;19917;-75
2022/10/13 02:56:17;;;;;;;;;;;21.20;99.10;;;;;;5009101;28;20560;-77
2022/10/13 02:58:44;;;;;;;;;;;21.30;99.50;;;;;;5003698;28;19997;-77
2022/10/13 03:01:13;;;;;;;;;;;21.40;99.10;;;;;;5008185;28;20394;-76
2022/10/13 03:03:39;;;;;;;;;;;21.50;99.30;;;;;;5006270;28;19961;-77
2022/10/13 03:06:06;;;;;;;;;;;21.50;99.30;;;;;;5008832;28;19917;-76
2022/10/13 03:08:34;;;;;;;;;;;21.70;99.40;;;;;;5001919;28;19913;-76
2022/10/13 03:11:00;;;;;;;;;;;21.80;99.50;;;;;;5008149;28;19924;-77
2022/10/13 03:13:28;;;;;;;;;;;21.90;98.80;;;;;;5003784;28;19926;-74
2022/10/13 03:15:54;;;;;;;;;;;22.00;98.70;;;;;;5007892;28;19953;-75
2022/10/13 03:18:21;;;;;;;;;;;22.00;98.60;;;;;;5005686;28;19917;-78
2022/10/13 03:21:01;;;;;;;;;;;22.10;98.90;;;;;;5006754;28;19926;-77
2022/10/13 03:23:27;;;;;;;;;;;22.10;99.00;;;;;;5008931;28;19913;-74
2022/10/13 03:25:54;;;;;;;;;;;22.50;99.00;;;;;;5044242;28;19928;-78
2022/10/13 03:28:21;;;;;;;;;;;22.80;98.00;;;;;;5046029;28;19936;-75
2022/10/13 03:30:48;;;;;;;;;;;23.10;98.00;;;;;;5048311;28;20445;-76
2022/10/13 03:33:14;;;;;;;;;;;23.10;97.60;;;;;;5041885;28;19920;-77
2022/10/13 03:35:41;;;;;;;;;;;23.10;97.70;;;;;;5043128;28;19963;-75
2022/10/13 03:38:08;;;;;;;;;;;23.30;97.20;;;;;;5042776;28;19994;-76
2022/10/13 03:40:35;;;;;;;;;;;23.20;97.30;;;;;;5049003;28;19916;-74
2022/10/13 03:43:02;;;;;;;;;;;23.10;97.30;;;;;;5042278;28;20373;-79
2022/10/13 03:45:30;;;;;;;;;;;22.90;98.00;;;;;;5037691;28;19924;-78
2022/10/13 03:47:57;;;;;;;;;;;22.80;97.60;;;;;;5035820;28;19920;-80
2022/10/13 03:50:23;;;;;;;;;;;22.50;98.00;;;;;;5034803;28;20012;-78
2022/10/13 03:52:50;;;;;;;;;;;22.40;98.20;;;;;;5046472;28;20334;-79
2022/10/13 03:55:17;;;;;;;;;;;22.40;98.10;;;;;;5044654;28;20260;-73
2022/10/13 03:57:43;;;;;;;;;;;22.40;98.20;;;;;;5049635;28;19917;-80
2022/10/13 04:00:11;;;;;;;;;;;22.60;98.20;;;;;;5044963;28;19921;-78
2022/10/13 04:02:37;;;;;;;;;;;22.80;98.00;;;;;;5047964;28;19921;-77
2022/10/13 04:05:04;;;;;;;;;;;22.90;98.00;;;;;;5041583;28;19916;-79
2022/10/13 04:07:31;;;;;;;;;;;23.00;97.80;;;;;;5048666;28;19929;-78
2022/10/13 04:09:57;;;;;;;;;;;23.00;97.80;;;;;;5043006;28;19966;-78
2022/10/13 04:12:24;;;;;;;;;;;22.90;97.60;;;;;;5047426;28;19916;-79
2022/10/13 04:14:51;;;;;;;;;;;22.90;98.10;;;;;;5044068;28;20020;-78
2022/10/13 04:17:17;;;;;;;;;;;22.90;98.20;;;;;;5049899;28;19966;-76
2022/10/13 04:19:44;;;;;;;;;;;23.00;98.10;;;;;;5046846;28;19927;-76
2022/10/13 04:22:11;;;;;;;;;;;23.00;98.20;;;;;;5046359;28;20007;-77
2022/10/13 04:24:37;;;;;;;;;;;23.00;98.30;;;;;;5041690;28;20255;-76
2022/10/13 04:27:04;;;;;;;;;;;22.90;98.30;;;;;;5050869;28;20297;-74
2022/10/13 04:29:31;;;;;;;;;;;22.90;98.20;;;;;;5049923;28;20334;-75
2022/10/13 04:32:01;;;;;;;;;;;22.90;98.20;;;;;;5048955;28;19945;-75
2022/10/13 04:34:27;;;;;;;;;;;22.90;98.40;;;;;;5048795;28;19966;-77
2022/10/13 04:36:54;;;;;;;;;;;23.00;98.40;;;;;;5049512;28;20594;-74
2022/10/13 04:39:20;;;;;;;;;;;23.10;98.10;;;;;;5029188;28;19917;-75
2022/10/13 04:41:47;;;;;;;;;;;23.30;98.30;;;;;;5037065;28;19975;-74
2022/10/13 04:44:14;;;;;;;;;;;23.70;97.90;;;;;;5041613;28;19917;-75
2022/10/13 04:46:40;;;;;;;;;;;24.00;97.30;;;;;;5040212;28;20386;-77
2022/10/13 04:49:07;;;;;;;;;;;24.00;97.40;;;;;;5040619;28;20355;-75
2022/10/13 04:51:34;;;;;;;;;;;24.20;97.40;;;;;;5043348;28;19913;-76
2022/10/13 04:54:01;;;;;;;;;;;24.10;97.10;;;;;;5042727;28;19920;-83
2022/10/13 04:56:28;;;;;;;;;;;24.20;97.00;;;;;;5039548;28;19925;-74
2022/10/13 04:58:55;;;;;;;;;;;24.10;97.10;;;;;;5039907;28;20007;-86
2022/10/13 05:01:23;;;;;;;;;;;23.70;97.30;;;;;;5040269;28;20055;-79
2022/10/13 05:03:56;;;;;;;;;;;23.30;97.60;;;;;;5038746;28;20039;-79
2022/10/13 05:06:25;;;;;;;;;;;23.00;98.30;;;;;;5045344;28;19967;-79
2022/10/13 05:08:52;;;;;;;;;;;22.70;98.40;;;;;;5043861;28;20012;-77
2022/10/13 05:11:19;;;;;;;;;;;22.70;98.50;;;;;;5048126;28;20359;-77
2022/10/13 05:13:46;;;;;;;;;;;22.60;98.70;;;;;;5044853;28;20343;-75
2022/10/13 05:16:14;;;;;;;;;;;22.60;99.00;;;;;;5030617;28;19983;-81
2022/10/13 05:18:41;;;;;;;;;;;22.60;99.00;;;;;;5049772;28;19920;-79
2022/10/13 05:21:08;;;;;;;;;;;22.40;99.00;;;;;;5049060;28;20003;-80
2022/10/13 05:23:35;;;;;;;;;;;22.30;99.10;;;;;;5037266;28;19920;-76
2022/10/13 05:26:06;;;;;;;;;;;22.30;99.10;;;;;;5044506;28;20326;-80
2022/10/13 05:28:34;;;;;;;;;;;22.30;99.00;;;;;;5040485;28;19970;-77
2022/10/13 05:31:14;;;;;;;;;;;22.20;99.40;;;;;;5041436;28;20325;-75
2022/10/13 05:33:41;;;;;;;;;;;22.10;99.40;;;;;;5046976;28;19916;-74
2022/10/13 05:36:11;;;;;;;;;;;22.00;99.50;;;;;;5049068;28;20007;-77
2022/10/13 05:38:38;;;;;;;;;;;21.90;99.70;;;;;;5046708;28;19966;-78
2022/10/13 05:41:05;;;;;;;;;;;21.80;99.90;;;;;;5046481;28;19998;-78
2022/10/13 05:43:32;;;;;;;;;;;21.70;99.90;;;;;;5048872;28;20351;-79
2022/10/13 05:46:00;;;;;;;;;;;21.70;99.90;;;;;;5047673;28;19979;-79
2022/10/13 05:48:27;;;;;;;;;;;21.70;99.90;;;;;;5048943;28;19955;-81
2022/10/13 05:50:54;;;;;;;;;;;21.50;99.90;;;;;;5048095;28;19917;-78
2022/10/13 05:53:22;;;;;;;;;;;21.60;99.90;;;;;;5050774;28;20004;-77
2022/10/13 05:55:49;;;;;;;;;;;21.50;99.90;;;;;;5048113;28;19929;-77
2022/10/13 05:58:16;;;;;;;;;;;21.40;99.90;;;;;;5044969;28;20745;-75
2022/10/13 06:00:43;;;;;;;;;;;21.30;99.90;;;;;;5023529;28;19947;-75
2022/10/13 06:03:15;;;;;;;;;;;21.20;99.90;;;;;;5042892;28;19924;-76
2022/10/13 06:05:44;;;;;;;;;;;21.20;99.90;;;;;;5048138;28;19916;-77
2022/10/13 06:08:10;;;;;;;;;;;21.10;99.90;;;;;;5046205;28;20004;-74
2022/10/13 06:10:37;;;;;;;;;;;21.10;99.90;;;;;;5038896;28;19970;-78
2022/10/13 06:13:04;;;;;;;;;;;21.10;99.90;;;;;;5044295;28;20394;-79
2022/10/13 06:15:30;;;;;;;;;;;21.00;99.90;;;;;;5047634;28;19925;-78
2022/10/13 06:17:57;;;;;;;;;;;21.00;99.90;;;;;;5042071;28;19983;-77
2022/10/13 06:20:26;;;;;;;;;;;21.00;99.90;;;;;;5048060;28;20362;-77
2022/10/13 06:22:55;;;;;;;;;;;21.00;99.90;;;;;;5044522;28;20446;-78
2022/10/13 06:25:22;;;;;;;;;;;21.10;99.90;;;;;;5045499;28;19928;-78
2022/10/13 06:27:49;;;;;;;;;;;21.00;99.90;;;;;;5043948;28;20400;-77
2022/10/13 06:30:16;;;;;;;;;;;21.00;99.90;;;;;;5041913;28;19924;-79
2022/10/13 06:32:42;;;;;;;;;;;20.90;99.90;;;;;;5043894;28;19917;-77
2022/10/13 06:35:09;;;;;;;;;;;21.00;99.90;;;;;;5045040;28;19928;-77
2022/10/13 06:37:36;;;;;;;;;;;20.90;99.90;;;;;;5039530;28;19921;-77
2022/10/13 06:40:04;;;;;;;;;;;20.90;99.90;;;;;;5038734;28;19916;-78
2022/10/13 06:42:32;;;;;;;;;;;20.90;99.90;;;;;;5037597;28;20516;-75
2022/10/13 06:44:59;;;;;;;;;;;20.80;99.90;;;;;;5046405;28;19955;-78
2022/10/13 06:47:26;;;;;;;;;;;20.70;99.90;;;;;;5045160;28;20531;-75
2022/10/13 06:49:52;;;;;;;;;;;20.70;99.90;;;;;;5041303;28;19921;-78
2022/10/13 06:52:19;;;;;;;;;;;20.60;99.90;;;;;;5045034;28;19960;-74
2022/10/13 06:54:46;;;;;;;;;;;20.60;99.90;;;;;;5046637;28;19912;-77
2022/10/13 06:57:13;;;;;;;;;;;20.50;99.90;;;;;;5050493;28;19913;-77
2022/10/13 06:59:39;;;;;;;;;;;20.40;99.90;;;;;;5039641;28;19919;-77
2022/10/13 07:02:06;;;;;;;;;;;20.40;99.90;;;;;;5047097;28;19963;-77
2022/10/13 07:04:32;;;;;;;;;;;20.40;99.90;;;;;;5036479;28;20282;-78
2022/10/13 07:06:59;;;;;;;;;;;20.30;99.90;;;;;;5050568;28;19916;-77
2022/10/13 07:09:26;;;;;;;;;;;20.30;99.90;;;;;;5043613;28;19919;-79
2022/10/13 07:11:53;;;;;;;;;;;20.30;99.90;;;;;;5049388;28;20370;-75
2022/10/13 07:14:19;;;;;;;;;;;20.20;99.90;;;;;;5043942;28;20290;-80
2022/10/13 07:16:49;;;;;;;;;;;20.20;99.90;;;;;;5049676;28;19924;-80
2022/10/13 07:19:15;;;;;;;;;;;20.20;99.90;;;;;;5035237;28;19913;-79
2022/10/13 07:21:42;;;;;;;;;;;20.10;99.90;;;;;;5047432;28;19912;-79
2022/10/13 07:24:10;;;;;;;;;;;20.10;99.90;;;;;;5044642;28;19917;-82
2022/10/13 07:26:37;;;;;;;;;;;20.10;99.90;;;;;;5050639;28;20381;-80
2022/10/13 07:29:04;;;;;;;;;;;20.00;99.90;;;;;;5041576;28;19920;-84
2022/10/13 07:31:30;;;;;;;;;;;19.90;99.90;;;;;;5045237;28;19920;-78
2022/10/13 07:33:58;;;;;;;;;;;19.90;99.90;;;;;;5048814;28;19917;-80
2022/10/13 07:36:24;;;;;;;;;;;19.80;99.90;;;;;;5053037;28;20267;-78
2022/10/13 07:38:51;;;;;;;;;;;19.80;99.90;;;;;;5043307;28;19920;-77
2022/10/13 07:41:18;;;;;;;;;;;19.80;99.90;;;;;;5052132;28;19913;-76
2022/10/13 07:43:44;;;;;;;;;;;19.80;99.90;;;;;;5049049;28;19920;-76
2022/10/13 07:46:14;;;;;;;;;;;19.70;99.90;;;;;;5054559;28;19923;-80
2022/10/13 07:48:41;;;;;;;;;;;19.60;99.90;;;;;;5048862;28;20429;-80
2022/10/13 07:51:09;;;;;;;;;;;19.70;99.90;;;;;;5053511;28;19967;-81
2022/10/13 07:53:35;;;;;;;;;;;19.60;99.90;;;;;;5034257;28;19913;-77
2022/10/13 07:56:04;;;;;;;;;;;19.60;99.90;;;;;;5052890;28;19927;-81
2022/10/13 07:58:30;;;;;;;;;;;19.50;99.90;;;;;;5050974;28;20355;-81
2022/10/13 08:00:58;;;;;;;;;;;19.50;99.90;;;;;;5052717;28;19917;-77
2022/10/13 08:03:25;;;;;;;;;;;19.50;99.90;;;;;;5041531;28;19966;-81
2022/10/13 08:05:53;;;;;;;;;;;19.40;99.90;;;;;;5049971;28;19923;-78
2022/10/13 08:08:20;;;;;;;;;;;19.40;99.90;;;;;;5045841;28;19913;-77
2022/10/13 08:10:46;;;;;;;;;;;19.40;99.90;;;;;;5047752;28;20433;-76
2022/10/13 08:13:13;;;;;;;;;;;19.30;99.90;;;;;;5051093;28;19960;-78
2022/10/13 08:15:40;;;;;;;;;;;19.30;99.90;;;;;;5052265;28;19995;-76
2022/10/13 08:18:07;;;;;;;;;;;19.30;99.90;;;;;;5047935;28;19957;-81
2022/10/13 08:20:34;;;;;;;;;;;19.20;99.90;;;;;;5045018;28;19921;-77
2022/10/13 08:23:01;;;;;;;;;;;19.20;99.90;;;;;;5050897;28;19913;-79
2022/10/13 08:25:27;;;;;;;;;;;19.10;99.90;;;;;;5053355;28;19921;-77
2022/10/13 08:27:54;;;;;;;;;;;19.10;99.90;;;;;;5050954;28;19948;-78
2022/10/13 08:30:21;;;;;;;;;;;19.10;99.90;;;;;;5051803;28;19912;-79
2022/10/13 08:32:48;;;;;;;;;;;19.10;99.90;;;;;;5048070;28;20438;-79
2022/10/13 08:35:15;;;;;;;;;;;19.00;99.90;;;;;;5053515;28;19920;-78
2022/10/13 08:37:42;;;;;;;;;;;19.00;99.90;;;;;;5046762;28;19913;-81
2022/10/13 08:40:12;;;;;;;;;;;18.90;99.90;;;;;;5046706;28;20011;-81
2022/10/13 08:42:42;;;;;;;;;;;18.90;99.90;;;;;;5048960;28;20344;-81
2022/10/13 08:45:15;;;;;;;;;;;18.90;99.90;;;;;;5052614;28;20311;-83
2022/10/13 08:48:08;;;;;;;;;;;18.90;99.90;;;;;;5047646;28;20372;-86
2022/10/13 08:50:36;;;;;;;;;;;18.90;99.90;;;;;;5045265;28;19917;-81
2022/10/13 08:53:14;;;;;;;;;;;18.90;99.90;;;;;;5045478;28;19924;-77
2022/10/13 08:55:42;;;;;;;;;;;18.90;99.90;;;;;;5040746;28;19927;-82
2022/10/13 08:58:12;;;;;;;;;;;18.90;99.90;;;;;;5041038;28;19916;-81
2022/10/13 09:00:39;;;;;;;;;;;18.90;99.90;;;;;;5048042;28;19917;-82
2022/10/13 09:03:25;;;;;;;;;;;18.90;99.90;;;;;;5045071;28;20366;-80
2022/10/13 09:06:05;;;;;;;;;;;18.80;99.90;;;;;;5042430;28;19917;-80
2022/10/13 09:08:37;;;;;;;;;;;18.90;99.90;;;;;;5039299;28;19917;-82
2022/10/13 09:11:03;;;;;;;;;;;18.80;99.90;;;;;;5048307;28;19959;-81
2022/10/13 09:13:30;;;;;;;;;;;18.80;99.90;;;;;;5048354;28;19947;-80
2022/10/13 09:15:57;;;;;;;;;;;18.80;99.90;;;;;;5051799;28;20345;-80
2022/10/13 09:18:28;;;;;;;;;;;18.80;99.90;;;;;;5044943;28;19920;-80
2022/10/13 09:21:16;;;;;;;;;;;18.80;99.90;;;;;;5050484;28;20279;-80
2022/10/13 09:23:42;;;;;;;;;;;18.80;99.90;;;;;;5045998;28;19953;-79
2022/10/13 09:26:15;;;;;;;;;;;18.80;99.90;;;;;;5050210;28;20394;-80
2022/10/13 09:28:42;;;;;;;;;;;18.80;99.90;;;;;;5043846;28;20007;-80
2022/10/13 09:31:14;;;;;;;;;;;18.80;99.90;;;;;;5064087;28;19921;-78
2022/10/13 09:33:41;;;;;;;;;;;18.70;99.90;;;;;;5054805;28;20116;-75
2022/10/13 09:36:12;;;;;;;;;;;18.70;99.90;;;;;;5041380;28;19929;-77
2022/10/13 09:38:40;;;;;;;;;;;18.70;99.90;;;;;;5044600;28;20379;-77
2022/10/13 09:41:09;;;;;;;;;;;18.70;99.90;;;;;;5041607;28;19948;-77
2022/10/13 09:43:37;;;;;;;;;;;18.70;99.90;;;;;;5048484;28;19913;-79
2022/10/13 09:46:11;;;;;;;;;;;18.70;99.90;;;;;;5051436;28;19920;-77
2022/10/13 09:48:41;;;;;;;;;;;18.70;99.90;;;;;;5047034;28;19924;-77
2022/10/13 09:51:27;;;;;;;;;;;18.70;99.90;;;;;;5049317;28;19917;-78
2022/10/13 09:53:54;;;;;;;;;;;18.70;99.90;;;;;;5046553;28;19935;-80
2022/10/13 09:56:23;;;;;;;;;;;18.70;99.90;;;;;;5049628;28;19924;-76
2022/10/13 09:59:08;;;;;;;;;;;18.70;99.90;;;;;;5047011;28;19966;-80
2022/10/13 10:01:38;;;;;;;;;;;18.70;99.90;;;;;;5048875;28;19912;-81
2022/10/13 10:04:07;;;;;;;;;;;18.70;99.90;;;;;;5052087;28;20007;-80
2022/10/13 10:06:36;;;;;;;;;;;18.60;99.90;;;;;;5047319;28;20228;-82
2022/10/13 10:09:26;;;;;;;;;;;18.60;99.90;;;;;;5057276;28;19912;-83
2022/10/13 10:11:54;;;;;;;;;;;18.60;99.90;;;;;;5045308;28;20402;-76
2022/10/13 10:14:26;;;;;;;;;;;18.60;99.90;;;;;;5044893;28;19916;-80
2022/10/13 10:17:06;;;;;;;;;;;18.60;99.90;;;;;;5044353;28;19932;-78
2022/10/13 10:19:44;;;;;;;;;;;18.60;99.90;;;;;;5045528;28;19912;-80
2022/10/13 10:22:25;;;;;;;;;;;18.60;99.90;;;;;;5049848;28;19920;-81
2022/10/13 10:24:58;;;;;;;;;;;18.60;99.90;;;;;;5033578;28;20012;-79
2022/10/13 10:27:27;;;;;;;;;;;18.50;99.90;;;;;;5042511;28;19912;-80
2022/10/13 10:30:12;;;;;;;;;;;18.60;99.90;;;;;;5050077;28;19970;-81
2022/10/13 10:32:51;;;;;;;;;;;18.50;99.90;;;;;;5045645;28;20012;-78
2022/10/13 10:35:36;;;;;;;;;;;18.50;99.90;;;;;;5048487;28;19991;-79
2022/10/13 10:38:02;;;;;;;;;;;18.50;99.90;;;;;;5039299;28;19958;-79
2022/10/13 10:40:33;;;;;;;;;;;18.50;99.90;;;;;;5047135;28;19921;-76
2022/10/13 10:43:02;;;;;;;;;;;18.50;99.90;;;;;;5046178;28;19913;-82
2022/10/13 10:45:37;;;;;;;;;;;18.50;99.90;;;;;;5051009;28;19917;-75
2022/10/13 10:48:11;;;;;;;;;;;18.40;99.90;;;;;;5050318;28;19921;-73
2022/10/13 10:50:38;;;;;;;;;;;18.40;99.90;;;;;;5045753;28;19908;-76
2022/10/13 10:53:22;;;;;;;;;;;18.40;99.90;;;;;;5044121;28;19978;-76
2022/10/13 10:56:03;;;;;;;;;;;18.40;99.90;;;;;;5037690;28;19925;-76
2022/10/13 10:58:48;;;;;;;;;;;18.40;99.90;;;;;;5023610;28;20303;-76
2022/10/13 11:01:25;;;;;;;;;;;18.30;99.90;;;;;;5044116;28;19992;-80
2022/10/13 11:03:54;;;;;;;;;;;18.20;99.90;;;;;;5044011;28;19929;-81
2022/10/13 11:06:23;;;;;;;;;;;18.20;99.90;;;;;;5029931;28;19998;-81
2022/10/13 11:08:50;;;;;;;;;;;18.20;99.90;;;;;;5034342;28;19982;-78
2022/10/13 11:11:19;;;;;;;;;;;18.10;99.90;;;;;;5043265;28;19921;-77
2022/10/13 11:13:51;;;;;;;;;;;18.10;99.90;;;;;;5047653;28;19931;-77
2022/10/13 11:16:26;;;;;;;;;;;18.10;99.90;;;;;;5044798;28;20290;-77
2022/10/13 11:19:10;;;;;;;;;;;18.10;99.90;;;;;;5047276;28;21036;-78
2022/10/13 11:21:55;;;;;;;;;;;18.00;99.90;;;;;;5041548;28;19913;-77
2022/10/13 11:24:35;;;;;;;;;;;18.00;99.90;;;;;;5040857;28;19927;-76
2022/10/13 11:27:10;;;;;;;;;;;18.00;99.90;;;;;;5038396;28;19924;-77
2022/10/13 11:29:44;;;;;;;;;;;17.90;99.90;;;;;;5040720;28;19917;-75
2022/10/13 11:32:26;;;;;;;;;;;17.80;99.90;;;;;;5047483;28;19913;-78
2022/10/13 11:35:00;;;;;;;;;;;17.80;99.90;;;;;;5038515;28;20712;-76
2022/10/13 11:37:44;;;;;;;;;;;17.80;99.90;;;;;;5042922;28;19913;-80
2022/10/13 11:40:24;;;;;;;;;;;17.80;99.90;;;;;;5048548;28;19916;-79
2022/10/13 11:42:57;;;;;;;;;;;17.70;99.90;;;;;;5040311;28;19924;-82
2022/10/13 11:45:30;;;;;;;;;;;17.70;99.90;;;;;;5041640;28;19954;-79
2022/10/13 11:48:08;;;;;;;;;;;17.60;99.90;;;;;;5043007;28;19975;-80
2022/10/13 11:50:39;;;;;;;;;;;17.50;99.90;;;;;;5042692;28;19959;-78
2022/10/13 11:53:11;;;;;;;;;;;17.50;99.90;;;;;;5040335;28;19917;-77
2022/10/13 11:55:43;;;;;;;;;;;17.40;99.90;;;;;;5048197;28;19947;-82
2022/10/13 11:58:13;;;;;;;;;;;17.30;99.90;;;;;;5042614;28;20632;-79
2022/10/13 12:00:49;;;;;;;;;;;17.30;99.90;;;;;;5048961;28;19921;-77
2022/10/13 12:03:29;;;;;;;;;;;17.30;99.90;;;;;;5042420;28;19924;-79
2022/10/13 12:06:00;;;;;;;;;;;17.30;99.90;;;;;;5042052;28;19923;-79
2022/10/13 12:08:28;;;;;;;;;;;17.30;99.90;;;;;;5048417;28;19913;-74
2022/10/13 12:10:56;;;;;;;;;;;17.20;99.90;;;;;;5044411;28;19916;-78
2022/10/13 12:13:27;;;;;;;;;;;17.20;99.90;;;;;;5041670;28;19917;-76
2022/10/13 12:16:05;;;;;;;;;;;17.20;99.90;;;;;;5042054;28;19920;-80
2022/10/13 12:18:37;;;;;;;;;;;17.10;99.90;;;;;;5045437;28;20015;-78
2022/10/13 12:21:15;;;;;;;;;;;17.10;99.90;;;;;;5038216;28;19917;-82
2022/10/13 12:23:41;;;;;;;;;;;17.00;99.90;;;;;;5047212;28;19948;-78
2022/10/13 12:26:14;;;;;;;;;;;17.00;99.90;;;;;;5048491;28;19921;-81
2022/10/13 12:28:43;;;;;;;;;;;16.90;99.90;;;;;;5036968;28;19951;-77
2022/10/13 12:31:16;;;;;;;;;;;16.90;99.90;;;;;;5051283;28;19917;-78
2022/10/13 12:33:43;;;;;;;;;;;16.80;99.90;;;;;;5044739;28;19917;-76
2022/10/13 12:36:20;;;;;;;;;;;16.80;99.90;;;;;;5047580;28;19927;-80
2022/10/13 12:38:49;;;;;;;;;;;16.80;99.90;;;;;;5038091;28;19916;-79
2022/10/13 12:41:18;;;;;;;;;;;16.80;99.90;;;;;;5047248;28;19920;-76
2022/10/13 12:43:45;;;;;;;;;;;16.80;99.90;;;;;;5049327;28;19916;-77
2022/10/13 12:46:12;;;;;;;;;;;16.80;99.90;;;;;;5044647;28;19912;-75
2022/10/13 12:48:39;;;;;;;;;;;16.80;99.90;;;;;;5027826;28;19920;-76
2022/10/13 12:51:26;;;;;;;;;;;16.80;99.90;;;;;;5044296;28;19928;-76
2022/10/13 12:53:53;;;;;;;;;;;16.70;99.90;;;;;;5042466;28;19999;-75
2022/10/13 12:56:30;;;;;;;;;;;16.70;99.90;;;;;;5040326;28;19968;-76
2022/10/13 12:58:57;;;;;;;;;;;16.70;99.90;;;;;;5044375;28;20019;-76
2022/10/13 13:01:28;;;;;;;;;;;16.60;99.90;;;;;;5051420;28;19964;-77
2022/10/13 13:04:15;;;;;;;;;;;16.60;99.90;;;;;;5043897;28;19920;-77
2022/10/13 13:06:51;;;;;;;;;;;16.60;99.90;;;;;;5043370;28;19939;-79
2022/10/13 13:09:23;;;;;;;;;;;16.60;99.90;;;;;;5047714;28;19917;-77
2022/10/13 13:12:03;;;;;;;;;;;16.50;99.90;;;;;;5049471;28;20378;-84
2022/10/13 13:14:37;;;;;;;;;;;16.50;99.90;;;;;;5039820;28;20343;-78
2022/10/13 13:17:05;;;;;;;;;;;16.50;99.90;;;;;;5045541;28;19924;-85
2022/10/13 13:19:33;;;;;;;;;;;16.50;99.90;;;;;;5047460;28;19959;-86
2022/10/13 13:22:00;;;;;;;;;;;16.40;99.90;;;;;;5043965;28;19963;-77
2022/10/13 13:24:27;;;;;;;;;;;16.40;99.90;;;;;;5045226;28;20302;-79
2022/10/13 13:26:53;;;;;;;;;;;16.50;99.90;;;;;;5045214;28;19963;-75
2022/10/13 13:29:20;;;;;;;;;;;16.50;99.90;;;;;;5047841;28;19931;-78
2022/10/13 13:31:47;;;;;;;;;;;16.50;99.90;;;;;;5047659;28;19921;-75
2022/10/13 13:34:13;;;;;;;;;;;16.50;99.90;;;;;;5043568;28;19917;-77
2022/10/13 13:36:40;;;;;;;;;;;16.50;99.90;;;;;;5039498;28;20477;-80
2022/10/13 13:39:15;;;;;;;;;;;16.50;99.90;;;;;;5042130;28;20389;-77
2022/10/13 13:41:41;;;;;;;;;;;16.40;99.90;;;;;;5043279;28;19913;-78
2022/10/13 13:44:08;;;;;;;;;;;16.50;99.90;;;;;;5046469;28;19916;-76
2022/10/13 13:46:35;;;;;;;;;;;16.40;99.90;;;;;;5035889;28;19927;-80
2022/10/13 13:49:02;;;;;;;;;;;16.40;99.90;;;;;;5048972;28;19964;-76
2022/10/13 13:51:28;;;;;;;;;;;16.40;99.90;;;;;;5043885;28;19967;-79
2022/10/13 13:53:55;;;;;;;;;;;16.40;99.90;;;;;;5040630;28;19913;-83
2022/10/13 13:56:22;;;;;;;;;;;16.40;99.90;;;;;;5046243;28;19925;-81
2022/10/13 13:58:48;;;;;;;;;;;16.40;99.90;;;;;;5044211;28;19917;-85
2022/10/13 14:01:15;;;;;;;;;;;16.40;99.90;;;;;;5044476;28;19912;-80
2022/10/13 14:03:42;;;;;;;;;;;16.40;99.90;;;;;;5041788;28;20324;-84
2022/10/13 14:06:15;;;;;;;;;;;16.50;99.90;;;;;;5049248;28;19913;-82
2022/10/13 14:08:42;;;;;;;;;;;16.50;99.90;;;;;;5041528;28;20035;-82
2022/10/13 14:11:09;;;;;;;;;;;16.50;99.90;;;;;;5044396;28;19916;-78
2022/10/13 14:13:36;;;;;;;;;;;16.60;99.90;;;;;;5041697;28;20347;-82
2022/10/13 14:16:03;;;;;;;;;;;16.60;99.90;;;;;;5043163;28;20477;-83
2022/10/13 14:18:30;;;;;;;;;;;16.60;99.90;;;;;;5034760;28;19928;-83
2022/10/13 14:20:57;;;;;;;;;;;16.70;99.90;;;;;;5047262;28;19996;-83
2022/10/13 14:23:23;;;;;;;;;;;16.70;99.90;;;;;;5050711;28;19917;-83
2022/10/13 14:25:50;;;;;;;;;;;16.70;99.90;;;;;;5050033;28;19957;-83
2022/10/13 14:28:17;;;;;;;;;;;16.70;99.90;;;;;;5048263;28;19912;-81
2022/10/13 14:30:43;;;;;;;;;;;16.70;99.90;;;;;;5045841;28;19921;-81